Time;durP1;ratioP1;P1;durP2;ratioP2;P2;SDS_P1;SDS_P2;PMS_P1;PMS_P2;Temp;Humidity;BMP_temperature;BMP_pressure;BME280_temperature;BME280_humidity;BME280_pressure;Samples;Min_cycle;Max_cycle;Signal;HPM_P1;HPM_P2
2023/10/08 00:01:56;;;;;;;10.23;4.50;;;;;;;18.44;100.00;102203.56;5223571;28;20052;-73
2023/10/08 00:04:28;;;;;;;9.55;4.10;;;;;;;18.48;100.00;102207.59;5223264;28;20033;-72
2023/10/08 00:07:00;;;;;;;7.32;4.03;;;;;;;18.47;100.00;102212.06;5220291;28;20471;-75
2023/10/08 00:09:35;;;;;;;8.07;4.78;;;;;;;18.39;100.00;102221.75;5222523;28;20030;-72
2023/10/08 00:12:08;;;;;;;10.30;4.88;;;;;;;18.34;100.00;102213.41;5221236;28;20045;-72
2023/10/08 00:14:43;;;;;;;7.28;4.65;;;;;;;18.34;100.00;102213.41;5223386;28;20490;-72
2023/10/08 00:17:17;;;;;;;7.60;4.15;;;;;;;18.22;100.00;102207.44;5221727;28;20049;-73
2023/10/08 00:19:52;;;;;;;11.73;4.70;;;;;;;18.24;100.00;102214.28;5221677;28;20504;-72
2023/10/08 00:22:25;;;;;;;9.90;4.88;;;;;;;18.22;100.00;102213.63;5223149;28;20041;-72
2023/10/08 00:24:58;;;;;;;6.53;3.88;;;;;;;18.19;100.00;102221.88;5222201;28;20030;-74
2023/10/08 00:27:38;;;;;;;;;;;;;;;19.02;100.00;102220.97;5225861;28;20036;-72
2023/10/08 00:30:17;;;;;;;8.38;4.03;;;;;;;18.20;100.00;102220.88;5224015;28;19917;-73
2023/10/08 00:32:49;;;;;;;7.18;4.28;;;;;;;18.06;100.00;102231.94;5223724;28;20037;-72
2023/10/08 00:35:21;;;;;;;9.73;3.87;;;;;;;18.04;100.00;102230.44;5223807;28;20029;-72
2023/10/08 00:37:53;;;;;;;9.20;4.20;;;;;;;18.01;100.00;102222.78;5223616;28;20041;-72
2023/10/08 00:40:36;;;;;;;8.55;4.68;;;;;;;18.21;100.00;102227.84;5224747;28;20280;-72
2023/10/08 00:43:10;;;;;;;8.57;4.13;;;;;;;17.99;100.00;102225.56;5220899;28;20029;-73
2023/10/08 00:45:43;;;;;;;8.90;4.68;;;;;;;17.91;100.00;102225.44;5222473;28;20029;-72
2023/10/08 00:48:17;;;;;;;11.73;4.80;;;;;;;17.87;100.00;102232.00;5222567;28;20029;-72
2023/10/08 00:50:48;;;;;;;8.38;4.70;;;;;;;17.83;100.00;102227.97;5222979;28;20029;-72
2023/10/08 00:53:23;;;;;;;10.63;4.75;;;;;;;17.78;100.00;102235.53;5220475;28;20045;-72
2023/10/08 00:56:04;;;;;;;9.20;4.93;;;;;;;17.71;100.00;102241.38;5223503;28;20117;-72
2023/10/08 00:58:36;;;;;;;10.45;4.72;;;;;;;17.66;100.00;102237.50;5222739;28;20037;-72
2023/10/08 01:01:10;;;;;;;9.20;4.25;;;;;;;17.59;100.00;102239.03;5225037;28;20498;-72
2023/10/08 01:03:44;;;;;;;7.95;3.90;;;;;;;17.51;100.00;102232.63;5222669;28;20045;-75
2023/10/08 01:06:21;;;;;;;7.40;4.63;;;;;;;17.45;100.00;102229.69;5222787;28;20360;-72
2023/10/08 01:08:54;;;;;;;7.88;4.53;;;;;;;17.42;100.00;102228.16;5219602;28;20049;-72
2023/10/08 01:11:46;;;;;;;8.38;4.47;;;;;;;17.40;100.00;102224.00;5221325;28;20021;-72
2023/10/08 01:14:25;;;;;;;6.88;4.25;;;;;;;17.41;100.00;102209.75;5221974;28;20038;-72
2023/10/08 01:16:58;;;;;;;6.68;4.50;;;;;;;17.33;100.00;102204.34;5222411;28;20034;-73
2023/10/08 01:19:31;;;;;;;7.47;4.30;;;;;;;17.35;100.00;102216.47;5219956;28;20047;-73
2023/10/08 01:22:07;;;;;;;9.32;4.63;;;;;;;17.40;100.00;102222.19;5221214;28;20045;-72
2023/10/08 01:24:40;;;;;;;7.47;4.63;;;;;;;17.25;100.00;102221.78;5225563;28;20034;-72
2023/10/08 01:27:12;;;;;;;11.40;4.60;;;;;;;17.27;100.00;102217.19;5223950;28;20399;-74
2023/10/08 01:29:44;;;;;;;8.90;4.72;;;;;;;17.19;100.00;102200.31;5219646;28;20325;-72
2023/10/08 01:32:21;;;;;;;10.53;4.47;;;;;;;17.36;100.00;102198.78;5220761;28;20224;-72
2023/10/08 01:34:53;;;;;;;7.38;4.30;;;;;;;17.15;100.00;102183.03;5222126;28;20521;-73
2023/10/08 01:37:26;;;;;;;8.55;4.60;;;;;;;17.13;100.00;102200.88;5219562;28;20042;-72
2023/10/08 01:40:01;;;;;;;7.85;4.45;;;;;;;17.10;100.00;102202.00;5221066;28;20507;-73
2023/10/08 01:42:38;;;;;;;8.20;4.50;;;;;;;17.09;100.00;102194.19;5224620;28;20040;-72
2023/10/08 01:45:17;;;;;;;8.82;4.45;;;;;;;17.08;100.00;102185.38;5224271;28;20506;-73
2023/10/08 01:47:51;;;;;;;9.43;5.00;;;;;;;17.05;100.00;102198.94;5219328;28;20388;-72
2023/10/08 01:50:29;;;;;;;7.70;4.47;;;;;;;16.99;100.00;102195.00;5220244;28;20427;-72
2023/10/08 01:53:01;;;;;;;8.43;4.82;;;;;;;17.02;100.00;102202.69;5222480;28;20467;-72
2023/10/08 01:55:45;;;;;;;8.82;4.88;;;;;;;17.03;100.00;102200.88;5220058;28;20034;-74
2023/10/08 01:58:17;;;;;;;8.20;4.50;;;;;;;17.02;100.00;102209.78;5220995;28;20391;-72
2023/10/08 02:00:52;;;;;;;7.32;4.10;;;;;;;17.05;100.00;102219.25;5222086;28;20025;-73
2023/10/08 02:03:23;;;;;;;7.53;4.78;;;;;;;17.02;100.00;102221.22;5218953;28;20395;-74
2023/10/08 02:05:59;;;;;;;7.90;5.05;;;;;;;16.99;100.00;102231.25;5219757;28;20038;-73
2023/10/08 02:08:31;;;;;;;8.68;4.40;;;;;;;17.07;100.00;102225.25;5221862;28;21556;-73
2023/10/08 02:11:03;;;;;;;11.25;4.80;;;;;;;17.04;100.00;102221.06;5220346;28;20041;-72
2023/10/08 02:13:36;;;;;;;7.63;4.80;;;;;;;17.04;100.00;102231.66;5221847;28;20483;-72
2023/10/08 02:16:09;;;;;;;11.75;5.22;;;;;;;17.04;100.00;102223.72;5221114;28;20400;-73
2023/10/08 02:18:41;;;;;;;7.57;4.43;;;;;;;17.03;100.00;102222.88;5222237;28;20037;-72
2023/10/08 02:21:13;;;;;;;9.43;5.07;;;;;;;17.00;100.00;102224.97;5220476;28;20376;-73
2023/10/08 02:23:46;;;;;;;7.85;5.10;;;;;;;17.01;100.00;102227.50;5222260;28;20056;-72
2023/10/08 02:26:19;;;;;;;10.10;5.28;;;;;;;17.01;100.00;102224.84;5221063;28;20032;-72
2023/10/08 02:28:50;;;;;;;;;;;;;;;17.82;100.00;102227.16;5221488;28;20029;-72
2023/10/08 02:31:22;;;;;;;9.18;4.78;;;;;;;17.02;100.00;102225.69;5218361;28;19928;-75
2023/10/08 02:33:54;;;;;;;7.22;4.72;;;;;;;17.02;100.00;102215.91;5222766;28;20052;-73
2023/10/08 02:36:26;;;;;;;8.77;4.53;;;;;;;16.96;100.00;102224.41;5219772;28;20041;-71
2023/10/08 02:38:58;;;;;;;7.57;4.30;;;;;;;16.96;100.00;102226.22;5222899;28;20224;-72
2023/10/08 02:41:30;;;;;;;10.45;5.00;;;;;;;16.96;100.00;102227.06;5219190;28;20033;-73
2023/10/08 02:44:05;;;;;;;8.88;4.97;;;;;;;16.95;100.00;102230.69;5222497;28;20044;-72
2023/10/08 02:46:42;;;;;;;9.65;4.28;;;;;;;16.92;100.00;102238.06;5223987;28;20026;-75
2023/10/08 02:49:22;;;;;;;9.10;4.47;;;;;;;16.87;100.00;102249.06;5224223;28;20030;-72
2023/10/08 02:51:54;;;;;;;9.95;5.25;;;;;;;16.85;100.00;102247.53;5225761;28;20037;-72
2023/10/08 02:54:36;;;;;;;9.93;5.03;;;;;;;16.89;100.00;102252.41;5226532;28;20056;-71
2023/10/08 02:57:13;;;;;;;8.10;5.28;;;;;;;16.87;100.00;102250.88;5222465;28;20030;-73
2023/10/08 02:59:45;;;;;;;10.55;4.90;;;;;;;16.84;100.00;102248.50;5226507;28;20052;-72
2023/10/08 03:02:21;;;;;;;7.97;4.63;;;;;;;16.87;100.00;102248.25;5227053;28;20339;-74
2023/10/08 03:04:53;;;;;;;9.77;4.80;;;;;;;16.88;100.00;102234.03;5224877;28;20061;-72
2023/10/08 03:07:35;;;;;;;9.02;4.72;;;;;;;16.88;100.00;102250.72;5222427;28;20045;-72
2023/10/08 03:10:17;;;;;;;9.57;4.65;;;;;;;16.87;100.00;102248.25;5224123;28;20040;-74
2023/10/08 03:12:49;;;;;;;7.47;5.15;;;;;;;16.89;100.00;102244.47;5224144;28;20033;-72
2023/10/08 03:15:31;;;;;;;7.63;4.68;;;;;;;16.97;100.00;102244.63;5224371;28;20041;-73
2023/10/08 03:18:10;;;;;;;9.68;4.72;;;;;;;16.96;100.00;102252.69;5225712;28;20041;-72
2023/10/08 03:20:42;;;;;;;11.93;5.47;;;;;;;16.92;100.00;102264.53;5226285;28;20398;-74
2023/10/08 03:23:32;;;;;;;8.85;4.72;;;;;;;16.93;100.00;102253.81;5222562;28;20426;-72
2023/10/08 03:28:37;;;;;;;8.40;4.47;;;;;;;16.90;100.00;102269.16;5222731;28;20169;-73
2023/10/08 03:31:17;;;;;;;11.27;5.10;;;;;;;16.88;100.00;102271.06;5224255;28;20033;-73
2023/10/08 03:33:51;;;;;;;9.43;5.00;;;;;;;16.87;100.00;102264.94;5223697;28;20033;-74
2023/10/08 03:36:34;;;;;;;8.52;4.75;;;;;;;16.88;100.00;102261.31;5222981;28;21465;-74
2023/10/08 03:39:13;;;;;;;9.00;4.88;;;;;;;16.90;100.00;102264.69;5224553;28;20042;-72
2023/10/08 03:41:51;;;;;;;9.90;5.00;;;;;;;16.86;100.00;102262.41;5224094;28;20029;-72
2023/10/08 03:44:24;;;;;;;10.48;5.20;;;;;;;16.87;100.00;102275.53;5223379;28;20032;-72
2023/10/08 03:46:57;;;;;;;12.95;5.10;;;;;;;16.81;100.00;102262.00;5224705;28;21222;-72
2023/10/08 03:49:31;;;;;;;8.75;4.55;;;;;;;16.86;100.00;102268.59;5224519;28;20026;-72
2023/10/08 03:52:06;;;;;;;10.52;5.13;;;;;;;16.81;100.00;102264.66;5223598;28;20045;-72
2023/10/08 03:54:43;;;;;;;9.30;5.03;;;;;;;16.78;100.00;102261.31;5223078;28;20044;-72
2023/10/08 03:57:25;;;;;;;9.68;5.10;;;;;;;16.77;100.00;102269.38;5225334;28;20502;-72
2023/10/08 03:59:58;;;;;;;10.43;5.63;;;;;;;16.75;100.00;102260.75;5224203;28;20087;-72
2023/10/08 04:02:40;;;;;;;11.95;5.20;;;;;;;16.76;100.00;102260.59;5223807;28;20048;-72
2023/10/08 04:05:19;;;;;;;11.85;4.80;;;;;;;16.71;100.00;102270.75;5222514;28;20036;-72
2023/10/08 04:13:28;;;;;;;11.82;5.03;;;;;;;16.73;100.00;102267.94;5216466;28;20034;-75
2023/10/08 04:15:59;;;;;;;;;;;;;;;17.54;100.00;102267.75;5223924;28;20034;-73
2023/10/08 04:18:32;;;;;;;9.98;5.40;;;;;;;16.78;100.00;102274.56;5223483;28;20397;-72
2023/10/08 04:21:12;;;;;;;9.57;4.57;;;;;;;16.77;100.00;102272.84;5220649;28;20446;-73
2023/10/08 04:23:44;;;;;;;9.45;5.15;;;;;;;16.70;100.00;102276.16;5220981;28;20036;-74
2023/10/08 04:26:16;;;;;;;10.57;4.40;;;;;;;16.66;100.00;102277.41;5224028;28;20034;-72
2023/10/08 04:28:48;;;;;;;9.40;4.40;;;;;;;16.69;100.00;102293.84;5221137;28;20061;-75
2023/10/08 04:31:24;;;;;;;11.43;5.23;;;;;;;16.68;100.00;102294.81;5221125;28;20509;-72
2023/10/08 04:34:00;;;;;;;9.02;4.40;;;;;;;16.63;100.00;102304.13;5224803;28;20028;-72
2023/10/08 04:36:32;;;;;;;11.93;5.13;;;;;;;16.63;100.00;102285.59;5222686;28;20037;-72
2023/10/08 04:39:14;;;;;;;9.82;4.25;;;;;;;16.63;100.00;102282.94;5221343;28;20029;-72
2023/10/08 04:41:46;;;;;;;8.95;4.65;;;;;;;16.63;100.00;102302.34;5222904;28;20042;-74
2023/10/08 04:44:21;;;;;;;7.03;4.18;;;;;;;16.67;100.00;102287.03;5221896;28;20037;-72
2023/10/08 04:46:53;;;;;;;10.88;4.95;;;;;;;16.64;100.00;102303.16;5222235;28;20030;-72
2023/10/08 04:49:28;;;;;;;10.50;5.20;;;;;;;16.59;100.00;102300.91;5222140;28;20030;-72
2023/10/08 04:52:13;;;;;;;9.70;4.32;;;;;;;16.56;100.00;102298.53;5189434;28;1024791;-72
2023/10/08 04:54:51;;;;;;;15.50;6.55;;;;;;;16.54;100.00;102311.91;5222845;28;20040;-72
2023/10/08 04:57:25;;;;;;;9.52;4.95;;;;;;;16.48;100.00;102308.97;5222566;28;20030;-72
2023/10/08 04:59:57;;;;;;;9.50;5.00;;;;;;;16.45;100.00;102312.69;5221932;28;20029;-73
2023/10/08 05:02:49;;;;;;;7.50;4.45;;;;;;;16.44;100.00;102308.41;5224557;28;20056;-72
2023/10/08 05:15:41;;;;;;;12.50;5.35;;;;;;;16.33;100.00;102318.19;5223976;28;20044;-73
2023/10/08 05:18:23;;;;;;;8.85;4.85;;;;;;;16.35;100.00;102329.50;5219866;28;20049;-72
2023/10/08 05:21:14;;;;;;;11.52;5.50;;;;;;;16.33;100.00;102334.06;5222917;28;20073;-72
2023/10/08 05:24:08;;;;;;;10.93;4.75;;;;;;;16.29;100.00;102323.78;5219922;28;20025;-72
2023/10/08 05:26:59;;;;;;;9.50;5.20;;;;;;;16.30;100.00;102325.44;5222085;28;20033;-72
2023/10/08 05:30:15;;;;;;;10.50;4.95;;;;;;;16.27;100.00;102333.63;5221686;28;20025;-72
2023/10/08 05:32:44;;;;;;;8.43;4.70;;;;;;;16.28;100.00;102332.66;5215854;28;20041;-72
2023/10/08 05:36:02;;;;;;;9.00;4.90;;;;;;;16.31;100.00;102336.84;5222979;28;20034;-74
2023/10/08 05:38:13;;;;;;;9.30;4.85;;;;;;;16.28;100.00;102345.88;5218234;28;20038;-72
2023/10/08 05:46:39;;;;;;;11.43;4.90;;;;;;;16.34;100.00;102363.03;5220136;28;20372;-75
2023/10/08 05:54:57;;;;;;;12.48;5.85;;;;;;;16.24;100.00;102339.16;5233016;23;20060;-74
2023/10/08 05:57:35;;;;;;;8.75;4.65;;;;;;;16.21;100.00;102328.88;5229770;28;20038;-75
2023/10/08 06:05:26;;;;;;;11.52;5.38;;;;;;;16.11;100.00;102306.81;5230032;28;20493;-74
2023/10/08 06:08:11;;;;;;;8.95;4.88;;;;;;;16.14;100.00;102311.00;5227432;28;20021;-74
2023/10/08 06:10:44;;;;;;;10.45;5.03;;;;;;;16.07;100.00;102296.66;5221197;28;20045;-75
2023/10/08 06:16:41;;;;;;;9.85;5.15;;;;;;;16.08;100.00;102301.78;5197792;28;20490;-75
2023/10/08 06:19:12;;;;;;;9.85;5.60;;;;;;;16.04;100.00;102314.44;5234488;28;20037;-75
2023/10/08 06:21:45;;;;;;;11.80;5.80;;;;;;;16.07;100.00;102313.34;5233880;28;20033;-75
2023/10/08 06:24:17;;;;;;;12.38;5.72;;;;;;;16.11;100.00;102320.03;5239031;28;20025;-75
2023/10/08 06:26:49;;;;;;;9.70;5.60;;;;;;;16.07;100.00;102316.00;5236830;28;20032;-74
2023/10/08 06:29:31;;;;;;;10.57;5.90;;;;;;;16.06;100.00;102335.44;5231882;28;20025;-75
2023/10/08 06:32:03;;;;;;;10.70;6.13;;;;;;;16.05;100.00;102326.69;5231985;28;20592;-75
2023/10/08 06:34:34;;;;;;;9.43;5.20;;;;;;;16.08;100.00;102348.53;5230255;28;20033;-75
2023/10/08 06:37:08;;;;;;;11.13;6.10;;;;;;;16.11;100.00;102340.38;5226073;28;20055;-75
2023/10/08 06:39:48;;;;;;;;;;;;;;;16.92;100.00;102339.50;5227509;28;20113;-74
2023/10/08 06:42:20;;;;;;;9.75;5.13;;;;;;;16.13;100.00;102339.25;5232974;28;19921;-75
2023/10/08 06:44:53;;;;;;;13.02;5.63;;;;;;;16.14;100.00;102334.78;5231656;28;20033;-75
2023/10/08 06:47:30;;;;;;;11.07;5.82;;;;;;;16.12;100.00;102337.56;5231799;28;20045;-75
2023/10/08 06:50:04;;;;;;;12.50;6.18;;;;;;;16.14;100.00;102337.44;5231634;28;20028;-75
2023/10/08 06:52:36;;;;;;;11.98;5.78;;;;;;;16.12;100.00;102342.88;5231157;28;20042;-75
2023/10/08 06:55:11;;;;;;;10.48;5.15;;;;;;;16.13;100.00;102343.69;5232117;28;20516;-74
2023/10/08 06:57:43;;;;;;;12.27;5.97;;;;;;;16.09;100.00;102342.28;5229699;28;20044;-75
2023/10/08 07:00:37;;;;;;;12.20;5.47;;;;;;;16.11;100.00;102351.78;5232650;28;20490;-74
2023/10/08 07:03:10;;;;;;;9.95;5.63;;;;;;;16.18;100.00;102362.69;5230091;28;20045;-75
2023/10/08 07:05:53;;;;;;;12.02;6.70;;;;;;;16.22;100.00;102370.22;5232041;28;20386;-74
2023/10/08 07:08:31;;;;;;;11.48;5.80;;;;;;;16.21;100.00;102379.13;5232412;28;20040;-74
2023/10/08 07:11:11;;;;;;;10.00;5.75;;;;;;;16.25;100.00;102372.59;5230843;28;20395;-75
2023/10/08 07:13:43;;;;;;;11.98;6.30;;;;;;;16.28;100.00;102369.69;5232871;28;20488;-74
2023/10/08 07:16:17;;;;;;;11.68;5.78;;;;;;;16.35;100.00;102379.75;5232389;28;20033;-74
2023/10/08 07:18:52;;;;;;;12.85;6.15;;;;;;;16.33;100.00;102379.88;5231667;28;20021;-75
2023/10/08 07:21:28;;;;;;;10.73;6.15;;;;;;;16.40;100.00;102377.53;5230407;28;20402;-73
2023/10/08 07:24:00;;;;;;;12.88;6.50;;;;;;;16.42;100.00;102378.25;5230003;28;20101;-73
2023/10/08 07:26:46;;;;;;;9.50;6.20;;;;;;;16.44;100.00;102379.81;5232491;28;20475;-73
2023/10/08 07:29:19;;;;;;;9.93;5.85;;;;;;;16.49;100.00;102385.53;5230423;28;20031;-74
2023/10/08 07:31:52;;;;;;;10.50;6.30;;;;;;;16.60;100.00;102391.72;5230877;28;20025;-73
2023/10/08 07:36:56;;;;;;;11.65;6.70;;;;;;;16.58;100.00;102378.63;5229129;28;20076;-73
2023/10/08 07:42:05;;;;;;;15.07;7.38;;;;;;;16.76;100.00;102406.16;5229937;28;20049;-74
2023/10/08 07:44:38;;;;;;;11.63;6.95;;;;;;;16.81;100.00;102394.34;5229041;28;20052;-73
2023/10/08 07:47:11;;;;;;;10.80;6.57;;;;;;;16.88;100.00;102396.31;5232023;28;20036;-73
2023/10/08 07:49:44;;;;;;;14.93;6.78;;;;;;;16.95;100.00;102383.41;5229569;28;20033;-73
2023/10/08 07:52:16;;;;;;;11.98;7.20;;;;;;;17.08;100.00;102386.63;5231224;28;20033;-74
2023/10/08 07:54:48;;;;;;;11.85;7.30;;;;;;;17.10;100.00;102379.41;5230355;28;20043;-73
2023/10/08 07:57:25;;;;;;;12.32;7.53;;;;;;;17.19;100.00;102381.22;5231139;28;20871;-74
2023/10/08 08:02:47;;;;;;;12.70;7.75;;;;;;;17.43;100.00;102393.28;5229582;28;20041;-74
2023/10/08 08:05:20;;;;;;;15.77;7.93;;;;;;;17.46;100.00;102396.50;5231482;28;20035;-74
2023/10/08 08:07:53;;;;;;;13.95;7.85;;;;;;;17.54;100.00;102401.13;5226999;28;20033;-73
2023/10/08 08:10:25;;;;;;;13.30;7.40;;;;;;;17.66;100.00;102413.25;5228408;28;20045;-73
2023/10/08 08:12:57;;;;;;;11.38;8.07;;;;;;;17.68;100.00;102418.41;5223479;28;20446;-74
2023/10/08 08:15:29;;;;;;;10.35;7.95;;;;;;;17.77;100.00;102422.06;5229920;28;20075;-73
2023/10/08 08:18:05;;;;;;;13.55;8.20;;;;;;;17.78;100.00;102435.19;5228327;28;20025;-74
2023/10/08 08:20:43;;;;;;;12.70;7.50;;;;;;;17.90;100.00;102434.06;5228971;28;20037;-73
2023/10/08 08:23:16;;;;;;;13.77;7.90;;;;;;;17.99;100.00;102430.59;5229707;28;20386;-73
2023/10/08 08:28:39;;;;;;;15.30;8.13;;;;;;;18.20;100.00;102446.34;5231215;28;20503;-73
2023/10/08 08:31:14;;;;;;;14.83;8.33;;;;;;;18.26;100.00;102449.41;5242561;22;20047;-71
2023/10/08 08:33:59;;;;;;;16.20;8.23;;;;;;;18.24;100.00;102457.53;5235889;28;20820;-71
2023/10/08 08:36:31;;;;;;;15.13;7.97;;;;;;;18.27;100.00;102469.69;5219220;28;20037;-71
2023/10/08 08:39:04;;;;;;;12.73;8.20;;;;;;;18.19;100.00;102455.31;5226533;28;20044;-71
2023/10/08 08:41:37;;;;;;;;;;;;;;;19.05;100.00;102467.69;5227906;28;20041;-71
2023/10/08 08:44:09;;;;;;;13.25;8.27;;;;;;;18.35;100.00;102477.75;5227139;28;20369;-71
2023/10/08 08:46:42;;;;;;;15.75;8.82;;;;;;;18.38;100.00;102474.84;5222480;28;20068;-70
2023/10/08 08:49:14;;;;;;;16.20;9.13;;;;;;;18.42;100.00;102470.91;5225782;28;20034;-71
2023/10/08 08:51:50;;;;;;;18.88;10.65;;;;;;;18.42;100.00;102466.44;5225493;28;20044;-71
2023/10/08 08:54:24;;;;;;;28.90;11.43;;;;;;;18.44;100.00;102464.47;5232019;28;20032;-71
2023/10/08 08:57:04;;;;;;;24.95;10.82;;;;;;;18.58;100.00;102465.84;5231579;28;20033;-71
2023/10/08 08:59:36;;;;;;;20.88;10.55;;;;;;;18.51;100.00;102464.75;5228156;28;20036;-71
2023/10/08 09:02:14;;;;;;;19.15;10.40;;;;;;;18.67;100.00;102469.44;5228974;28;20038;-71
2023/10/08 09:04:48;;;;;;;24.15;10.43;;;;;;;18.74;100.00;102472.41;5230096;28;20052;-71
2023/10/08 09:07:21;;;;;;;23.33;10.45;;;;;;;18.73;100.00;102458.31;5225842;28;20476;-71
2023/10/08 09:09:57;;;;;;;21.38;10.23;;;;;;;18.89;100.00;102468.31;5231788;28;20044;-70
2023/10/08 09:12:29;;;;;;;18.85;11.30;;;;;;;18.91;100.00;102474.31;5232694;28;20048;-71
2023/10/08 09:15:02;;;;;;;16.35;10.02;;;;;;;18.98;100.00;102479.88;5233854;28;20034;-71
2023/10/08 09:17:34;;;;;;;20.67;10.63;;;;;;;19.03;100.00;102480.28;5232535;28;20037;-71
2023/10/08 09:20:07;;;;;;;21.95;11.10;;;;;;;19.16;100.00;102484.28;5232325;28;20032;-71
2023/10/08 09:22:38;;;;;;;21.50;10.95;;;;;;;19.16;100.00;102478.97;5234060;28;20060;-71
2023/10/08 09:25:14;;;;;;;16.67;10.55;;;;;;;19.27;100.00;102480.59;5233061;28;20029;-71
2023/10/08 09:27:55;;;;;;;24.08;12.02;;;;;;;19.40;100.00;102478.44;5224714;28;20038;-71
2023/10/08 09:30:29;;;;;;;22.60;11.68;;;;;;;19.36;100.00;102473.56;5225641;28;20038;-71
2023/10/08 09:33:02;;;;;;;22.05;12.43;;;;;;;19.41;100.00;102479.28;5220472;28;20113;-71
2023/10/08 09:35:34;;;;;;;20.30;12.38;;;;;;;19.49;100.00;102476.69;5223090;28;20026;-71
2023/10/08 09:38:08;;;;;;;22.73;11.90;;;;;;;19.52;100.00;102481.72;5223555;28;20042;-70
2023/10/08 09:40:44;;;;;;;22.15;13.20;;;;;;;19.62;100.00;102490.53;5232055;28;20025;-71
2023/10/08 09:43:16;;;;;;;18.92;11.70;;;;;;;19.65;100.00;102492.84;5231977;28;20029;-71
2023/10/08 09:45:57;;;;;;;18.55;11.45;;;;;;;19.80;100.00;102485.19;5225129;28;20505;-70
2023/10/08 09:48:30;;;;;;;21.98;12.18;;;;;;;19.72;100.00;102481.63;5224323;28;20041;-71
2023/10/08 09:51:06;;;;;;;25.20;13.10;;;;;;;19.72;100.00;102481.63;5233661;28;20488;-71
2023/10/08 09:53:47;;;;;;;20.15;12.52;;;;;;;19.88;100.00;102471.16;5232427;28;20037;-71
2023/10/08 09:56:20;;;;;;;23.60;13.50;;;;;;;19.75;100.00;102470.69;5224578;28;20044;-71
2023/10/08 09:58:53;;;;;;;20.50;12.15;;;;;;;19.87;100.00;102470.31;5220444;28;20041;-71
2023/10/08 10:01:26;;;;;;;24.88;14.25;;;;;;;19.86;100.00;102465.16;5228120;28;20041;-71
2023/10/08 10:03:59;;;;;;;22.23;12.63;;;;;;;19.89;100.00;102459.53;5227681;28;20483;-71
2023/10/08 10:06:32;;;;;;;21.63;13.68;;;;;;;19.95;100.00;102455.44;5233175;28;20493;-71
2023/10/08 10:09:12;;;;;;;21.20;13.02;;;;;;;20.05;100.00;102443.72;5224108;28;20021;-71
2023/10/08 10:11:49;;;;;;;19.85;12.80;;;;;;;20.03;100.00;102451.00;5232710;28;20029;-71
2023/10/08 10:14:25;;;;;;;23.50;11.98;;;;;;;20.26;100.00;102445.19;5231616;28;20044;-71
2023/10/08 10:17:20;;;;;;;19.63;12.40;;;;;;;20.55;100.00;102448.44;5230603;28;20029;-71
2023/10/08 10:19:56;;;;;;;20.83;12.43;;;;;;;20.35;100.00;102446.94;5220473;28;20030;-71
2023/10/08 10:22:34;;;;;;;21.35;11.90;;;;;;;20.44;100.00;102467.31;5227087;28;20084;-71
2023/10/08 10:25:17;;;;;;;16.95;11.52;;;;;;;20.55;100.00;102467.06;5223659;28;20064;-71
2023/10/08 10:27:55;;;;;;;21.23;13.88;;;;;;;20.82;100.00;102468.75;5231334;28;20473;-71
2023/10/08 10:30:27;;;;;;;23.65;12.93;;;;;;;20.72;100.00;102460.03;5229644;28;20060;-70
2023/10/08 10:33:02;;;;;;;21.37;13.53;;;;;;;20.84;100.00;102457.94;5232361;28;20041;-70
2023/10/08 10:35:37;;;;;;;26.38;12.50;;;;;;;20.96;100.00;102446.00;5231584;28;20280;-70
2023/10/08 10:38:09;;;;;;;20.75;12.32;;;;;;;21.12;100.00;102458.56;5231201;28;20044;-70
2023/10/08 10:40:41;;;;;;;24.00;13.77;;;;;;;21.13;100.00;102460.22;5231115;28;20381;-70
2023/10/08 10:43:15;;;;;;;25.13;13.23;;;;;;;21.14;100.00;102460.09;5232861;28;20504;-70
2023/10/08 10:45:48;;;;;;;23.00;14.10;;;;;;;21.13;100.00;102461.06;5231680;28;20036;-70
2023/10/08 10:51:10;;;;;;;25.80;14.20;;;;;;;21.24;100.00;102475.09;5232671;28;20576;-70
2023/10/08 10:53:57;;;;;;;24.10;14.20;;;;;;;21.04;100.00;102469.19;5231718;28;20768;-70
2023/10/08 10:56:29;;;;;;;28.70;14.02;;;;;;;20.97;100.00;102463.66;5232280;28;20037;-70
2023/10/08 10:59:18;;;;;;;28.13;15.23;;;;;;;21.01;100.00;102465.00;5231145;28;20020;-70
2023/10/08 11:01:55;;;;;;;27.63;15.25;;;;;;;20.93;100.00;102478.28;5235911;28;20052;-70
2023/10/08 11:04:30;;;;;;;27.35;13.82;;;;;;;21.02;100.00;102471.16;5234700;28;20112;-70
2023/10/08 11:07:06;;;;;;;26.52;14.60;;;;;;;20.95;100.00;102460.34;5233266;28;20478;-70
2023/10/08 11:09:38;;;;;;;26.25;14.45;;;;;;;21.05;100.00;102466.34;5234206;28;20029;-70
2023/10/08 11:12:12;;;;;;;26.23;12.90;;;;;;;21.02;100.00;102471.16;5235361;28;20030;-70
2023/10/08 11:14:47;;;;;;;24.25;13.70;;;;;;;21.10;100.00;102472.06;5235024;28;20026;-70
2023/10/08 11:17:26;;;;;;;20.15;13.02;;;;;;;21.20;100.00;102469.25;5235837;28;20061;-70
2023/10/08 11:19:58;;;;;;;23.38;12.23;;;;;;;20.83;100.00;102474.91;5235317;28;20052;-70
2023/10/08 11:22:44;;;;;;;30.67;12.33;;;;;;;21.08;100.00;102479.38;5234175;28;20407;-72
2023/10/08 11:25:27;;;;;;;31.60;13.32;;;;;;;20.76;100.00;102472.06;5235409;28;20029;-72
2023/10/08 11:28:08;;;;;;;25.10;11.93;;;;;;;20.64;100.00;102470.63;5235520;28;20037;-72
2023/10/08 11:30:42;;;;;;;26.77;13.27;;;;;;;20.64;100.00;102478.59;5234566;28;20064;-72
2023/10/08 11:33:16;;;;;;;17.77;11.48;;;;;;;20.56;100.00;102476.72;5235554;28;20036;-72
2023/10/08 11:36:00;;;;;;;18.20;11.35;;;;;;;20.72;100.00;102469.84;5233630;28;20366;-72
2023/10/08 11:38:42;;;;;;;19.90;11.65;;;;;;;20.76;100.00;102460.53;5236749;28;20049;-72
2023/10/08 11:41:21;;;;;;;16.42;10.85;;;;;;;20.70;100.00;102459.34;5250708;28;20042;-72
2023/10/08 11:43:57;;;;;;;19.27;12.50;;;;;;;20.75;100.00;102473.03;5236218;28;20033;-72
2023/10/08 11:46:38;;;;;;;18.33;11.75;;;;;;;20.69;100.00;102467.50;5235010;28;20052;-71
2023/10/08 11:49:17;;;;;;;18.67;12.25;;;;;;;20.70;100.00;102458.53;5234744;28;20033;-72
2023/10/08 11:51:52;;;;;;;24.25;12.18;;;;;;;20.75;100.00;102459.69;5234564;28;20040;-72
2023/10/08 11:54:24;;;;;;;17.20;12.30;;;;;;;20.78;100.00;102458.56;5234408;28;20029;-72
2023/10/08 11:56:56;;;;;;;16.73;11.70;;;;;;;20.91;100.00;102448.31;5216583;28;20048;-72
2023/10/08 11:59:29;;;;;;;17.30;11.27;;;;;;;21.09;100.00;102440.22;5234424;28;20057;-72
2023/10/08 12:02:01;;;;;;;17.10;11.65;;;;;;;20.94;100.00;102426.66;5233833;28;20063;-72
2023/10/08 12:04:33;;;;;;;14.37;10.87;;;;;;;21.13;100.00;102445.06;5233754;28;20037;-72
2023/10/08 12:07:07;;;;;;;23.38;11.73;;;;;;;21.18;100.00;102433.13;5234404;28;20037;-71
2023/10/08 12:09:41;;;;;;;15.00;10.98;;;;;;;21.19;100.00;102430.28;5234057;28;20044;-71
2023/10/08 12:12:13;;;;;;;20.08;12.50;;;;;;;21.30;100.00;102434.47;5229307;28;20029;-72
2023/10/08 12:14:47;;;;;;;17.13;11.02;;;;;;;21.23;100.00;102428.94;5230221;28;20030;-72
2023/10/08 12:17:18;;;;;;;17.40;12.10;;;;;;;21.22;100.00;102426.47;5233492;28;20013;-71
2023/10/08 12:19:52;;;;;;;18.77;11.97;;;;;;;21.22;100.00;102429.13;5228699;28;20056;-72
2023/10/08 12:22:26;;;;;;;21.98;12.77;;;;;;;21.02;100.00;102425.88;5207014;28;20053;-72
2023/10/08 12:25:00;;;;;;;18.45;11.82;;;;;;;21.08;100.00;102426.06;5234248;28;20033;-71
2023/10/08 12:27:32;;;;;;;15.88;10.02;;;;;;;21.03;100.00;102431.06;5234128;28;20496;-71
2023/10/08 12:30:09;;;;;;;15.47;10.30;;;;;;;21.14;100.00;102422.78;5233030;28;20030;-72
2023/10/08 12:32:42;;;;;;;17.63;10.07;;;;;;;21.02;100.00;102434.69;5228861;28;20522;-72
2023/10/08 12:35:14;;;;;;;16.20;9.80;;;;;;;21.06;100.00;102428.06;5228990;28;20036;-72
2023/10/08 12:37:46;;;;;;;12.17;8.40;;;;;;;21.04;100.00;102429.22;5223739;28;20042;-72
2023/10/08 12:40:24;;;;;;;16.20;9.17;;;;;;;20.99;100.00;102421.72;5228758;28;20504;-71
2023/10/08 12:42:55;;;;;;;16.92;10.98;;;;;;;20.95;100.00;102411.50;5227559;28;20033;-72